createdAt,value
2023-01-11T00:00:26.404Z,6.37
2023-01-11T00:03:18.664Z,6.37
2023-01-11T00:05:45.538Z,6.27
2023-01-11T00:08:12.475Z,6.14
2023-01-11T00:10:39.971Z,6.16
2023-01-11T00:13:06.930Z,6.25
2023-01-11T00:15:35.125Z,6.29
2023-01-11T00:18:03.025Z,6.38
2023-01-11T00:20:29.981Z,6.35
2023-01-11T00:22:56.778Z,6.27
2023-01-11T00:25:23.493Z,6.17
2023-01-11T00:27:50.196Z,6.15
2023-01-11T00:30:17.518Z,6.04
2023-01-11T00:32:44.151Z,6.08
2023-01-11T00:35:10.837Z,5.95
2023-01-11T00:37:37.528Z,5.96
2023-01-11T00:40:07.254Z,5.87
2023-01-11T00:42:52.478Z,5.82
2023-01-11T00:45:37.657Z,5.76
2023-01-11T00:48:06.062Z,5.62
2023-01-11T00:50:36.793Z,5.54
2023-01-11T00:53:03.758Z,5.36
2023-01-11T00:55:32.026Z,5.25
2023-01-11T00:57:59.139Z,5.15
2023-01-11T01:00:26.295Z,5.13
2023-01-11T01:02:53.253Z,5.28
2023-01-11T01:05:19.968Z,5.30
2023-01-11T01:07:46.674Z,5.35
2023-01-11T01:10:14.426Z,5.32
2023-01-11T01:12:59.655Z,5.30
2023-01-11T01:15:26.508Z,5.26
2023-01-11T01:17:54.573Z,5.16
2023-01-11T01:20:22.614Z,5.06
2023-01-11T01:22:49.601Z,4.97
2023-01-11T01:25:16.425Z,4.89
2023-01-11T01:27:43.004Z,4.88
2023-01-11T01:30:09.925Z,4.85
2023-01-11T01:32:36.554Z,4.77
2023-01-11T01:35:03.241Z,4.70
2023-01-11T01:37:29.854Z,4.75
2023-01-11T01:39:56.496Z,4.75
2023-01-11T01:42:26.342Z,4.76
2023-01-11T01:44:56.408Z,4.83
2023-01-11T01:47:26.777Z,4.92
2023-01-11T01:49:53.557Z,4.97
2023-01-11T01:52:20.489Z,4.91
2023-01-11T01:54:48.332Z,4.83
2023-01-11T01:57:19.138Z,4.89
2023-01-11T01:59:51.649Z,4.83
2023-01-11T02:02:21.398Z,4.82
2023-01-11T02:04:48.745Z,4.85
2023-01-11T02:07:17.494Z,4.87
2023-01-11T02:09:51.675Z,4.83
2023-01-11T02:12:18.838Z,4.69
2023-01-11T02:14:47.313Z,4.56
2023-01-11T02:17:14.033Z,4.47
2023-01-11T02:20:10.120Z,4.46
2023-01-11T02:22:52.094Z,4.37
2023-01-11T02:25:25.176Z,4.31
2023-01-11T02:27:58.896Z,4.36
2023-01-11T02:30:39.061Z,4.35
2023-01-11T02:33:18.433Z,4.38
2023-01-11T02:35:55.928Z,4.46
2023-01-11T02:38:27.962Z,4.40
2023-01-11T02:41:00.525Z,4.47
2023-01-11T02:43:49.265Z,4.39
2023-01-11T02:46:30.346Z,4.34
2023-01-11T02:48:59.990Z,4.25
2023-01-11T02:51:32.507Z,4.17
2023-01-11T02:54:01.518Z,4.21
2023-01-11T02:56:30.891Z,4.16
2023-01-11T02:58:58.545Z,4.05
2023-01-11T03:01:25.721Z,3.96
2023-01-11T03:03:53.366Z,4.05
2023-01-11T03:06:20.803Z,4.08
2023-01-11T03:09:13.665Z,4.08
2023-01-11T03:12:17.720Z,4.02
2023-01-11T03:14:47.302Z,4.04
2023-01-11T03:17:22.589Z,4.03
2023-01-11T03:19:52.452Z,3.99
2023-01-11T03:22:18.993Z,3.88
2023-01-11T03:24:52.121Z,3.84
2023-01-11T03:27:24.604Z,3.74
2023-01-11T03:29:55.027Z,3.65
2023-01-11T03:32:21.643Z,3.57
2023-01-11T03:34:55.264Z,3.50
2023-01-11T03:37:44.301Z,3.46
2023-01-11T03:40:16.214Z,3.55
2023-01-11T03:43:03.476Z,3.47
2023-01-11T03:45:32.053Z,3.42
2023-01-11T03:48:01.365Z,3.42
2023-01-11T03:50:28.955Z,3.36
2023-01-11T03:52:57.643Z,3.33
2023-01-11T03:55:26.739Z,3.36
2023-01-11T03:57:54.283Z,3.31
2023-01-11T04:00:21.616Z,3.23
2023-01-11T04:02:48.961Z,3.24
2023-01-11T04:05:15.665Z,3.25
2023-01-11T04:07:42.246Z,3.22
2023-01-11T04:10:09.210Z,3.16
2023-01-11T04:12:35.800Z,3.32
2023-01-11T04:15:03.547Z,3.35
2023-01-11T04:17:30.080Z,3.33
2023-01-11T04:19:56.699Z,3.30
2023-01-11T04:22:23.248Z,3.36
2023-01-11T04:24:49.808Z,3.39
2023-01-11T04:27:16.359Z,3.38
2023-01-11T04:29:42.928Z,3.50
2023-01-11T04:32:09.636Z,3.58
2023-01-11T04:34:36.226Z,3.63
2023-01-11T04:37:02.736Z,3.61
2023-01-11T04:39:29.357Z,3.61
2023-01-11T04:42:14.370Z,3.56
2023-01-11T04:44:41.219Z,3.46
2023-01-11T04:47:07.799Z,3.43
2023-01-11T04:49:34.563Z,3.38
2023-01-11T04:52:01.080Z,3.42
2023-01-11T04:54:27.714Z,3.36
2023-01-11T04:56:54.375Z,3.35
2023-01-11T04:59:21.034Z,3.34
2023-01-11T05:01:47.675Z,3.33
2023-01-11T05:04:14.429Z,3.37
2023-01-11T05:06:41.143Z,3.38
2023-01-11T05:09:12.205Z,3.37
2023-01-11T05:11:38.886Z,3.35
2023-01-11T05:14:05.508Z,3.30
2023-01-11T05:16:32.154Z,3.24
2023-01-11T05:18:59.921Z,3.25
2023-01-11T05:21:28.479Z,3.28
2023-01-11T05:23:55.269Z,3.31
2023-01-11T05:26:23.614Z,3.39
2023-01-11T05:28:50.560Z,3.41
2023-01-11T05:31:17.534Z,3.40
2023-01-11T05:33:44.497Z,3.44
2023-01-11T05:36:15.745Z,3.44
2023-01-11T05:38:42.482Z,3.48
2023-01-11T05:41:10.267Z,3.51
2023-01-11T05:43:55.766Z,3.51
2023-01-11T05:46:22.788Z,3.54
2023-01-11T05:48:49.570Z,3.49
2023-01-11T05:51:16.337Z,3.50
2023-01-11T05:53:42.916Z,3.46
2023-01-11T05:56:10.161Z,3.46
2023-01-11T05:58:36.950Z,3.43
2023-01-11T06:01:03.663Z,3.46
2023-01-11T06:03:30.259Z,3.38
2023-01-11T06:05:58.326Z,3.40
2023-01-11T06:08:25.424Z,3.37
2023-01-11T06:10:55.538Z,3.41
2023-01-11T06:13:28.662Z,3.43
2023-01-11T06:15:58.651Z,3.46
2023-01-11T06:18:25.289Z,3.50
2023-01-11T06:20:52.551Z,3.53
2023-01-11T06:23:19.537Z,3.55
2023-01-11T06:25:46.481Z,3.54
2023-01-11T06:28:13.631Z,3.60
2023-01-11T06:30:40.587Z,3.59
2023-01-11T06:33:07.765Z,3.55
2023-01-11T06:35:38.598Z,3.65
2023-01-11T06:38:05.751Z,3.66
2023-01-11T06:40:32.466Z,3.63
2023-01-11T06:42:58.991Z,3.59
2023-01-11T06:45:25.625Z,3.59
2023-01-11T06:47:52.194Z,3.57
2023-01-11T06:50:18.910Z,3.56
2023-01-11T06:53:05.727Z,3.57
2023-01-11T06:55:32.677Z,3.60
2023-01-11T06:57:59.393Z,3.63
2023-01-11T07:00:27.281Z,3.67
2023-01-11T07:02:54.074Z,3.78
2023-01-11T07:05:22.333Z,3.86
2023-01-11T07:07:49.009Z,3.88
2023-01-11T07:10:16.270Z,3.93
2023-01-11T07:12:42.886Z,3.97
2023-01-11T07:15:10.245Z,4.01
2023-01-11T07:22:07.020Z,4.00
2023-01-11T07:25:23.743Z,4.00
2023-01-11T07:32:21.447Z,4.01
2023-01-11T07:54:07.968Z,3.93
2023-01-11T07:56:34.630Z,3.91
2023-01-11T07:59:01.292Z,3.97
2023-01-11T08:01:27.927Z,3.96
2023-01-11T08:03:54.576Z,3.94
2023-01-11T08:06:21.272Z,3.91
2023-01-11T08:08:47.919Z,3.89
2023-01-11T08:11:33.422Z,3.88
2023-01-11T08:14:18.391Z,3.84
2023-01-11T08:16:45.131Z,3.90
2023-01-11T08:19:11.711Z,3.92
2023-01-11T08:21:38.306Z,3.96
2023-01-11T08:24:04.932Z,3.92
2023-01-11T08:26:31.573Z,3.95
2023-01-11T08:28:58.193Z,3.91
2023-01-11T08:31:25.963Z,3.92
2023-01-11T08:33:55.522Z,3.95
2023-01-11T08:36:32.431Z,3.98
2023-01-11T08:38:59.488Z,3.94
2023-01-11T08:41:26.066Z,3.96
2023-01-11T08:43:52.735Z,4.05
2023-01-11T08:46:19.666Z,4.04
2023-01-11T08:48:50.176Z,4.13
2023-01-11T08:51:18.110Z,4.07
2023-01-11T08:53:44.663Z,4.03
2023-01-11T08:56:11.442Z,3.97
2023-01-11T08:58:38.019Z,3.97
2023-01-11T09:01:08.237Z,3.88
2023-01-11T09:03:35.197Z,3.91
2023-01-11T09:06:01.756Z,3.90
2023-01-11T09:08:28.875Z,3.94
2023-01-11T09:10:59.725Z,3.93
2023-01-11T09:13:26.826Z,3.96
2023-01-11T09:15:57.347Z,3.99
2023-01-11T09:18:26.818Z,4.34
2023-01-11T09:20:54.098Z,4.52
2023-01-11T09:23:20.989Z,4.55
2023-01-11T09:25:47.600Z,4.58
2023-01-11T09:28:14.147Z,4.62
2023-01-11T09:30:40.814Z,4.74
2023-01-11T09:33:07.378Z,4.58
2023-01-11T09:35:34.995Z,4.57
2023-01-11T09:38:02.604Z,4.69
2023-01-11T09:40:52.370Z,4.67
2023-01-11T09:43:24.566Z,5.31
2023-01-11T09:45:53.079Z,5.50
2023-01-11T09:48:23.938Z,5.48
2023-01-11T09:50:50.621Z,5.82
2023-01-11T09:53:34.858Z,5.72
2023-01-11T09:56:05.638Z,6.06
2023-01-11T09:59:09.451Z,6.27
2023-01-11T10:01:39.013Z,6.07
2023-01-11T10:04:16.176Z,6.19
2023-01-11T10:06:45.850Z,6.60
2023-01-11T10:18:34.081Z,6.36
2023-01-11T10:18:38.765Z,6.43
2023-01-11T10:20:43.771Z,6.52
2023-01-11T10:23:15.010Z,6.43
2023-01-11T10:25:48.050Z,6.79
2023-01-11T10:28:23.090Z,6.68
2023-01-11T10:31:00.137Z,6.91
2023-01-11T10:33:50.455Z,6.79
2023-01-11T10:36:44.321Z,6.58
2023-01-11T10:39:37.379Z,6.79
2023-01-11T10:42:07.876Z,6.56
2023-01-11T10:44:53.365Z,6.39
2023-01-11T10:47:23.786Z,6.48
2023-01-11T10:50:25.935Z,6.62
2023-01-11T10:53:00.046Z,6.65
2023-01-11T10:55:47.170Z,6.17
2023-01-11T10:58:35.880Z,5.97
2023-01-11T11:01:10.036Z,5.97
2023-01-11T11:03:53.052Z,5.80
2023-01-11T11:06:38.652Z,5.50
2023-01-11T11:09:24.108Z,5.51
2023-01-11T11:11:54.439Z,5.41
2023-01-11T11:14:30.831Z,5.31
2023-01-11T11:17:10.813Z,5.21
2023-01-11T11:19:37.667Z,5.20
2023-01-11T11:22:04.316Z,5.16
2023-01-11T11:24:37.506Z,5.32
2023-01-11T11:27:13.914Z,5.36
2023-01-11T11:29:41.734Z,5.21
2023-01-11T11:32:16.716Z,5.25
2023-01-11T11:34:47.346Z,5.25
2023-01-11T11:37:25.310Z,5.45
2023-01-11T11:39:52.841Z,5.67
2023-01-11T11:42:21.464Z,5.57
2023-01-11T11:45:07.135Z,5.69
2023-01-11T11:47:35.548Z,5.90
2023-01-11T11:50:42.657Z,5.90
2023-01-11T11:53:30.738Z,5.85
2023-01-11T11:55:57.467Z,5.79
2023-01-11T11:58:25.256Z,5.76
2023-01-11T12:00:52.579Z,5.68
2023-01-11T12:03:21.509Z,5.68
2023-01-11T12:05:52.675Z,5.72
2023-01-11T12:08:21.590Z,5.77
2023-01-11T12:10:51.923Z,5.72
2023-01-11T12:13:37.655Z,5.73
2023-01-11T12:16:05.597Z,5.67
2023-01-11T12:18:41.385Z,5.71
2023-01-11T12:21:20.314Z,5.67
2023-01-11T12:23:47.651Z,5.63
2023-01-11T12:26:20.156Z,5.59
2023-01-11T12:28:46.912Z,5.67
2023-01-11T12:46:11.953Z,5.47
2023-01-11T12:49:01.834Z,5.35
2023-01-11T12:51:28.448Z,5.32
2023-01-11T12:54:01.114Z,5.29
2023-01-11T12:56:43.583Z,5.32
2023-01-11T12:59:18.078Z,5.30
2023-01-11T13:02:03.363Z,5.24
2023-01-11T13:04:32.829Z,5.14
2023-01-11T13:06:59.459Z,5.07
2023-01-11T13:09:29.061Z,5.05
2023-01-11T13:12:15.966Z,5.11
2023-01-11T13:14:42.551Z,5.16
2023-01-11T13:17:15.273Z,5.17
2023-01-11T13:19:53.957Z,5.23
2023-01-11T13:22:23.246Z,5.31
2023-01-11T13:24:50.827Z,5.41
2023-01-11T13:27:19.568Z,5.45
2023-01-11T13:29:47.389Z,5.49
2023-01-11T13:32:15.900Z,5.52
2023-01-11T13:34:47.533Z,5.55
2023-01-11T13:37:18.084Z,5.57
2023-01-11T13:39:50.697Z,5.56
2023-01-11T13:42:20.975Z,5.59
2023-01-11T13:44:58.306Z,5.59
2023-01-11T13:47:34.335Z,5.60
2023-01-11T13:50:09.335Z,5.60
2023-01-11T13:52:35.861Z,5.63
2023-01-11T13:55:14.435Z,5.63
2023-01-11T13:58:03.211Z,5.59
2023-01-11T14:00:41.251Z,5.63
2023-01-11T14:03:17.101Z,5.61
2023-01-11T14:06:02.059Z,5.58
2023-01-11T14:08:45.816Z,5.49
2023-01-11T14:11:21.600Z,5.43
2023-01-11T14:14:06.620Z,5.41
2023-01-11T14:16:43.714Z,5.40
2023-01-11T14:19:27.648Z,5.40
2023-01-11T14:21:54.317Z,5.30
2023-01-11T14:24:21.952Z,5.20
2023-01-11T14:27:12.416Z,5.17
2023-01-11T14:29:39.027Z,5.18
2023-01-11T14:32:11.481Z,5.10
2023-01-11T14:34:38.069Z,5.12
2023-01-11T14:37:16.917Z,5.13
2023-01-11T14:39:43.497Z,5.05
2023-01-11T14:42:12.148Z,5.04
2023-01-11T14:44:43.763Z,5.07
2023-01-11T14:47:28.847Z,5.06
2023-01-11T14:50:07.355Z,5.00
2023-01-11T14:52:40.009Z,4.94
2023-01-11T14:55:14.478Z,4.96
2023-01-11T14:57:42.320Z,4.94
2023-01-11T15:00:18.015Z,5.00
2023-01-11T15:02:45.253Z,5.00
2023-01-11T15:05:27.652Z,4.96
2023-01-11T15:08:14.243Z,4.91
2023-01-11T15:10:50.009Z,4.88
2023-01-11T15:13:24.876Z,4.80
2023-01-11T15:16:10.671Z,4.79
2023-01-11T15:18:45.058Z,4.72
2023-01-11T15:21:19.303Z,4.69
2023-01-11T15:23:48.561Z,4.64
2023-01-11T15:26:17.754Z,4.56
2023-01-11T15:28:50.529Z,4.53
2023-01-11T15:31:33.986Z,4.48
2023-01-11T15:34:19.956Z,4.48
2023-01-11T15:37:02.881Z,4.43
2023-01-11T15:39:35.883Z,4.36
2023-01-11T15:42:05.480Z,4.34
2023-01-11T15:44:35.237Z,4.35
2023-01-11T15:47:18.688Z,4.33
2023-01-11T15:49:54.418Z,4.30
2023-01-11T15:52:36.405Z,4.25
2023-01-11T15:55:08.909Z,4.16
2023-01-11T15:57:35.644Z,4.10
2023-01-11T16:00:21.433Z,4.03
2023-01-11T16:02:48.042Z,4.00
2023-01-11T16:05:23.637Z,3.95
2023-01-11T16:08:09.137Z,3.93
2023-01-11T16:10:51.234Z,3.93
2023-01-11T16:13:33.045Z,3.80
2023-01-11T16:16:05.672Z,3.72
2023-01-11T16:18:38.347Z,3.62
2023-01-11T16:21:09.315Z,3.57
2023-01-11T16:23:36.162Z,3.50
2023-01-11T16:26:04.662Z,3.40
2023-01-11T16:28:31.277Z,3.33
2023-01-11T16:31:03.315Z,3.25
2023-01-11T16:33:31.010Z,3.16
2023-01-11T16:38:55.407Z,3.04
2023-01-11T16:41:25.880Z,2.96
2023-01-11T16:44:07.511Z,2.92
2023-01-11T16:46:46.421Z,2.91
2023-01-11T16:49:19.260Z,2.88
2023-01-11T16:51:46.835Z,2.94
2023-01-11T16:54:17.732Z,2.93
2023-01-11T16:56:50.762Z,2.93
2023-01-11T16:59:24.546Z,3.03
2023-01-11T17:01:52.942Z,3.02
2023-01-11T17:04:30.451Z,3.01
2023-01-11T17:06:57.832Z,2.95
2023-01-11T17:09:28.380Z,2.89
2023-01-11T17:11:56.676Z,2.87
2023-01-11T17:14:35.517Z,2.87
2023-01-11T17:17:04.420Z,2.90
2023-01-11T17:19:32.002Z,2.88
2023-01-11T17:22:04.754Z,2.90
2023-01-11T17:24:34.438Z,2.84
2023-01-11T17:27:02.178Z,2.80
2023-01-11T17:29:31.254Z,2.74
2023-01-11T17:31:59.566Z,2.77
2023-01-11T17:34:34.212Z,2.75
2023-01-11T17:37:02.366Z,2.72
2023-01-11T17:39:34.221Z,2.66
2023-01-11T17:42:21.540Z,2.68
2023-01-11T17:45:08.942Z,2.68
2023-01-11T17:47:38.124Z,2.62
2023-01-11T17:50:05.113Z,2.57
2023-01-11T17:52:43.843Z,2.55
2023-01-11T17:55:18.670Z,2.48
2023-01-11T17:58:00.801Z,2.43
2023-01-11T18:00:28.591Z,2.39
2023-01-11T18:02:55.822Z,2.39
2023-01-11T18:05:25.905Z,2.36
2023-01-11T18:07:54.913Z,2.32
2023-01-11T18:10:22.926Z,2.30
2023-01-11T18:12:50.638Z,2.33
2023-01-11T18:15:19.467Z,2.33
2023-01-11T18:17:46.278Z,2.31
2023-01-11T18:20:15.815Z,2.27
2023-01-11T18:22:56.398Z,2.24
2023-01-11T18:25:30.117Z,2.24
2023-01-11T18:28:16.184Z,2.29
2023-01-11T18:30:46.709Z,2.32
2023-01-11T18:33:16.200Z,2.40
2023-01-11T18:35:44.103Z,2.47
2023-01-11T18:38:30.316Z,2.56
2023-01-11T18:40:58.402Z,2.59
2023-01-11T18:43:29.089Z,2.62
2023-01-11T18:45:58.236Z,2.64
2023-01-11T18:48:24.800Z,2.68
2023-01-11T18:50:54.473Z,2.68
2023-01-11T18:53:21.224Z,2.69
2023-01-11T18:55:47.804Z,2.72
2023-01-11T18:58:14.506Z,2.74
2023-01-11T19:00:41.675Z,2.78
2023-01-11T19:05:44.923Z,2.88
2023-01-11T19:08:11.516Z,2.89
2023-01-11T19:10:38.216Z,2.90
2023-01-11T19:13:05.351Z,2.96
2023-01-11T19:15:35.182Z,2.99
2023-01-11T19:18:02.939Z,3.03
2023-01-11T19:23:01.270Z,3.14
2023-01-11T19:25:27.867Z,3.18
2023-01-11T19:27:55.045Z,3.19
2023-01-11T19:30:21.754Z,3.24
2023-01-11T19:32:52.720Z,3.25
2023-01-11T19:35:19.659Z,3.33
2023-01-11T19:37:47.105Z,3.33
2023-01-11T19:40:13.829Z,3.35
2023-01-11T19:42:40.468Z,3.40
2023-01-11T19:45:07.590Z,3.48
2023-01-11T19:47:34.688Z,3.49
2023-01-11T19:50:01.313Z,3.50
2023-01-11T19:52:28.000Z,3.54
2023-01-11T19:54:57.259Z,3.60
2023-01-11T19:57:24.086Z,3.63
2023-01-11T19:59:50.995Z,3.64
2023-01-11T20:02:20.965Z,3.66
2023-01-11T20:04:47.744Z,3.64
2023-01-11T20:07:14.749Z,3.63
2023-01-11T20:09:41.489Z,3.68
2023-01-11T20:12:09.173Z,3.67
2023-01-11T20:14:36.480Z,3.70
2023-01-11T20:17:03.281Z,3.68
2023-01-11T20:19:29.989Z,3.66
2023-01-11T20:21:56.705Z,3.58
2023-01-11T20:24:29.821Z,3.54
2023-01-11T20:26:57.737Z,3.47
2023-01-11T20:29:24.502Z,3.44
2023-01-11T20:31:51.209Z,3.39
2023-01-11T20:34:18.051Z,3.34
2023-01-11T20:36:45.048Z,3.33
2023-01-11T20:39:11.761Z,3.34
2023-01-11T20:41:47.360Z,3.29
2023-01-11T20:44:18.527Z,3.18
2023-01-11T20:46:47.730Z,3.12
2023-01-11T20:49:14.847Z,3.01
2023-01-11T20:51:42.633Z,2.92
2023-01-11T20:54:10.128Z,2.92
2023-01-11T20:56:38.682Z,2.91
2023-01-11T20:59:06.778Z,2.90
2023-01-11T21:01:33.956Z,2.89
2023-01-11T21:04:02.329Z,2.88
2023-01-11T21:06:31.458Z,2.84
2023-01-11T21:09:01.437Z,2.82
2023-01-11T21:11:28.950Z,2.76
2023-01-11T21:13:55.920Z,2.78
2023-01-11T21:16:24.552Z,2.74
2023-01-11T21:18:58.025Z,2.70
2023-01-11T21:21:25.235Z,2.62
2023-01-11T21:24:03.828Z,2.59
2023-01-11T21:26:31.472Z,2.54
2023-01-11T21:28:59.809Z,2.49
2023-01-11T21:31:31.331Z,2.43
2023-01-11T21:33:58.479Z,2.43
2023-01-11T21:36:25.949Z,2.43
2023-01-11T21:38:53.831Z,2.38
2023-01-11T21:41:40.615Z,2.39
2023-01-11T21:44:08.235Z,2.38
2023-01-11T21:46:34.853Z,2.37
2023-01-11T21:49:03.219Z,2.40
2023-01-11T21:51:32.787Z,2.43
2023-01-11T21:53:59.544Z,2.52
2023-01-11T21:56:26.802Z,2.63
2023-01-11T21:58:53.403Z,2.62
2023-01-11T22:01:22.269Z,2.60
2023-01-11T22:03:49.604Z,2.54
2023-01-11T22:06:16.688Z,2.52
2023-01-11T22:08:47.004Z,2.52
2023-01-11T22:11:14.625Z,2.49
2023-01-11T22:13:41.373Z,2.48
2023-01-11T22:16:11.673Z,2.49
2023-01-11T22:18:38.407Z,2.39
2023-01-11T22:21:09.418Z,2.33
2023-01-11T22:23:36.196Z,2.32
2023-01-11T22:26:04.041Z,2.25
2023-01-11T22:28:30.701Z,2.27
2023-01-11T22:31:03.660Z,2.33
2023-01-11T22:33:30.336Z,2.42
2023-01-11T22:35:56.960Z,2.50
2023-01-11T22:38:23.676Z,2.61
2023-01-11T22:40:50.197Z,2.65
2023-01-11T22:43:16.859Z,2.80
2023-01-11T22:45:43.574Z,2.90
2023-01-11T22:48:10.335Z,2.93
2023-01-11T22:50:38.191Z,3.10
2023-01-11T22:53:04.837Z,3.13
2023-01-11T22:55:32.902Z,3.12
2023-01-11T22:57:59.507Z,3.10
2023-01-11T23:00:26.063Z,3.06
2023-01-11T23:02:52.748Z,3.05
2023-01-11T23:05:19.738Z,3.12
2023-01-11T23:07:46.371Z,3.10
2023-01-11T23:10:15.947Z,3.05
2023-01-11T23:13:01.431Z,3.15
2023-01-11T23:15:28.897Z,3.25
2023-01-11T23:17:55.461Z,3.21
2023-01-11T23:20:22.208Z,3.28
2023-01-11T23:22:51.921Z,3.31
2023-01-11T23:25:18.495Z,3.34
2023-01-11T23:27:45.063Z,3.26
2023-01-11T23:30:11.948Z,3.30
2023-01-11T23:32:40.790Z,3.23
2023-01-11T23:35:08.981Z,3.23
2023-01-11T23:37:35.525Z,3.27
2023-01-11T23:40:05.416Z,3.40
2023-01-11T23:42:32.127Z,3.44
2023-01-11T23:44:58.870Z,3.47
2023-01-11T23:47:25.717Z,3.44
2023-01-11T23:49:53.722Z,3.43
2023-01-11T23:52:21.710Z,3.38
2023-01-11T23:54:48.653Z,3.42
2023-01-11T23:57:15.647Z,3.45
2023-01-11T23:59:42.529Z,3.42
